createdAt,value
2023-04-24T00:01:11.551Z,1.83
2023-04-24T00:03:38.483Z,2.75
2023-04-24T00:06:06.569Z,1.35
2023-04-24T00:08:33.665Z,2.08
2023-04-24T00:11:00.434Z,4.90
2023-04-24T00:13:29.548Z,1.75
2023-04-24T00:15:57.145Z,3.00
2023-04-24T00:18:23.895Z,2.75
2023-04-24T00:20:50.752Z,2.40
2023-04-24T00:23:17.608Z,3.17
2023-04-24T00:25:44.470Z,3.08
2023-04-24T00:28:11.337Z,2.63
2023-04-24T00:30:38.090Z,2.90
2023-04-24T00:33:05.007Z,1.88
2023-04-24T00:35:34.712Z,2.35
2023-04-24T00:38:01.865Z,1.23
2023-04-24T00:40:29.443Z,2.97
2023-04-24T00:42:56.913Z,2.80
2023-04-24T00:45:23.829Z,7.13
2023-04-24T00:47:53.457Z,3.78
2023-04-24T00:50:22.607Z,2.42
2023-04-24T00:52:49.864Z,3.28
2023-04-24T00:55:16.726Z,6.63
2023-04-24T00:57:47.901Z,1.52
2023-04-24T01:00:16.504Z,1.80
2023-04-24T01:02:46.523Z,2.55
2023-04-24T01:05:14.691Z,2.70
2023-04-24T01:07:45.364Z,3.40
2023-04-24T01:10:14.272Z,1.23
2023-04-24T01:12:41.163Z,1.40
2023-04-24T01:15:08.897Z,2.35
2023-04-24T01:17:36.344Z,5.47
2023-04-24T01:20:06.929Z,2.83
2023-04-24T01:22:35.872Z,3.05
2023-04-24T01:25:04.177Z,1.50
2023-04-24T01:27:31.087Z,1.55
2023-04-24T01:29:57.981Z,2.97
2023-04-24T01:32:26.358Z,5.25
2023-04-24T01:34:53.547Z,2.22
2023-04-24T01:37:20.383Z,2.40
2023-04-24T01:39:47.224Z,2.90
2023-04-24T01:42:14.723Z,1.63
2023-04-24T01:44:43.058Z,1.30
2023-04-24T01:47:10.237Z,1.88
2023-04-24T01:49:39.450Z,3.28
2023-04-24T01:52:08.013Z,2.72
2023-04-24T01:54:35.045Z,5.30
2023-04-24T01:57:03.235Z,2.30
2023-04-24T01:59:31.207Z,2.30
2023-04-24T02:01:58.056Z,3.38
2023-04-24T02:04:24.978Z,3.17
2023-04-24T02:06:51.959Z,2.72
2023-04-24T02:09:18.732Z,2.28
2023-04-24T02:11:45.590Z,1.23
2023-04-24T02:14:12.371Z,2.47
2023-04-24T02:16:39.281Z,1.40
2023-04-24T02:19:06.146Z,2.17
2023-04-24T02:21:33.170Z,2.25
2023-04-24T02:24:00.030Z,1.50
2023-04-24T02:26:27.286Z,1.95
2023-04-24T02:28:54.082Z,2.08
2023-04-24T02:31:21.155Z,3.20
2023-04-24T02:33:47.988Z,2.35
2023-04-24T02:36:15.278Z,1.95
2023-04-24T02:38:42.120Z,1.67
2023-04-24T02:41:09.056Z,1.92
2023-04-24T02:43:35.877Z,2.35
2023-04-24T02:46:02.670Z,3.92
2023-04-24T02:48:29.773Z,1.70
2023-04-24T02:50:56.638Z,3.85
2023-04-24T02:53:24.582Z,2.63
2023-04-24T02:55:51.364Z,1.50
2023-04-24T02:58:18.618Z,2.15
2023-04-24T03:00:45.365Z,4.72
2023-04-24T03:03:12.287Z,2.88
2023-04-24T03:05:39.217Z,3.95
2023-04-24T03:08:06.280Z,2.50
2023-04-24T03:10:33.516Z,2.08
2023-04-24T03:13:00.315Z,5.68
2023-04-24T03:15:27.970Z,1.60
2023-04-24T03:17:56.695Z,2.53
2023-04-24T03:20:24.161Z,3.58
2023-04-24T03:22:50.992Z,4.32
2023-04-24T03:25:17.861Z,4.13
2023-04-24T03:27:44.701Z,1.35
2023-04-24T03:30:11.711Z,3.92
2023-04-24T03:32:40.621Z,3.00
2023-04-24T03:35:09.733Z,2.67
2023-04-24T03:37:36.598Z,4.85
2023-04-24T03:40:03.876Z,4.00
2023-04-24T03:42:30.879Z,4.13
2023-04-24T03:44:57.864Z,1.80
2023-04-24T03:47:24.733Z,3.75
2023-04-24T03:49:51.601Z,5.80
2023-04-24T03:52:18.414Z,1.60
2023-04-24T03:54:45.169Z,1.88
2023-04-24T03:57:12.001Z,4.85
2023-04-24T03:59:38.762Z,2.67
2023-04-24T04:02:05.786Z,5.13
2023-04-24T04:04:32.819Z,2.20
2023-04-24T04:07:02.433Z,2.38
2023-04-24T04:09:29.173Z,1.95
2023-04-24T04:11:56.402Z,2.13
2023-04-24T04:14:23.848Z,4.53
2023-04-24T04:16:53.197Z,5.32
2023-04-24T04:19:21.402Z,3.88
2023-04-24T04:21:53.319Z,2.45
2023-04-24T04:24:22.004Z,2.45
2023-04-24T04:26:48.785Z,5.00
2023-04-24T04:29:18.489Z,5.53
2023-04-24T04:31:46.158Z,2.50
2023-04-24T04:34:13.897Z,2.47
2023-04-24T04:36:41.334Z,3.47
2023-04-24T04:39:08.618Z,4.03
2023-04-24T04:41:38.972Z,7.53
2023-04-24T04:44:05.896Z,7.50
2023-04-24T04:46:34.312Z,4.05
2023-04-24T04:49:02.519Z,3.63
2023-04-24T04:51:29.402Z,3.08
2023-04-24T04:53:56.230Z,4.70
2023-04-24T04:56:23.573Z,3.80
2023-04-24T04:58:50.458Z,3.65
2023-04-24T05:01:17.332Z,2.50
2023-04-24T05:03:44.344Z,2.65
2023-04-24T05:06:11.342Z,3.63
2023-04-24T05:08:38.109Z,1.75
2023-04-24T05:11:04.966Z,5.45
2023-04-24T05:13:39.400Z,2.33
2023-04-24T05:16:08.007Z,3.63
2023-04-24T05:18:35.037Z,4.25
2023-04-24T05:21:02.639Z,5.47
2023-04-24T05:23:29.533Z,3.10
2023-04-24T05:25:56.393Z,2.85
2023-04-24T05:28:23.171Z,2.00
2023-04-24T05:30:50.114Z,4.55
2023-04-24T05:33:16.940Z,2.33
2023-04-24T05:35:47.935Z,3.20
2023-04-24T05:38:15.584Z,3.90
2023-04-24T05:40:42.334Z,1.77
2023-04-24T05:43:09.050Z,1.85
2023-04-24T05:45:37.312Z,7.18
2023-04-24T05:48:04.835Z,2.45
2023-04-24T05:50:31.636Z,2.00
2023-04-24T05:53:02.905Z,2.85
2023-04-24T05:55:29.755Z,6.63
2023-04-24T05:57:56.540Z,3.97
2023-04-24T06:00:23.477Z,6.75
2023-04-24T06:02:50.734Z,2.28
2023-04-24T06:05:17.810Z,2.17
2023-04-24T06:07:44.785Z,2.38
2023-04-24T06:10:11.831Z,2.97
2023-04-24T06:12:38.658Z,3.25
2023-04-24T06:15:06.283Z,3.10
2023-04-24T06:17:33.646Z,3.42
2023-04-24T06:20:00.551Z,4.43
2023-04-24T06:22:27.378Z,8.00
2023-04-24T06:24:54.139Z,5.93
2023-04-24T06:27:20.904Z,2.78
2023-04-24T06:29:53.870Z,4.68
2023-04-24T06:32:20.722Z,3.72
2023-04-24T06:34:47.678Z,3.25
2023-04-24T06:37:15.177Z,4.10
2023-04-24T06:39:42.239Z,3.00
2023-04-24T06:42:10.664Z,4.32
2023-04-24T06:44:42.106Z,2.10
2023-04-24T06:47:10.085Z,2.78
2023-04-24T06:49:37.946Z,2.00
2023-04-24T06:52:04.835Z,2.30
2023-04-24T06:54:32.357Z,5.22
2023-04-24T06:56:59.616Z,5.45
2023-04-24T06:59:26.385Z,4.95
2023-04-24T07:01:55.186Z,3.08
2023-04-24T07:04:22.823Z,3.50
2023-04-24T07:06:53.921Z,3.60
2023-04-24T07:09:21.631Z,3.22
2023-04-24T07:11:48.523Z,2.97
2023-04-24T07:14:15.351Z,4.65
2023-04-24T07:16:42.849Z,2.33
2023-04-24T07:19:09.978Z,3.38
2023-04-24T07:21:36.738Z,4.03
2023-04-24T07:24:03.637Z,5.45
2023-04-24T07:26:31.387Z,4.18
2023-04-24T07:28:58.769Z,2.33
2023-04-24T07:31:25.978Z,3.88
2023-04-24T07:33:52.868Z,5.25
2023-04-24T07:36:20.261Z,6.00
2023-04-24T07:38:47.687Z,4.45
2023-04-24T07:41:15.433Z,9.48
2023-04-24T07:43:42.919Z,4.43
2023-04-24T07:46:10.538Z,4.10
2023-04-24T07:48:38.066Z,4.32
2023-04-24T07:51:05.031Z,5.82
2023-04-24T07:53:31.854Z,4.13
2023-04-24T07:55:58.807Z,3.20
2023-04-24T07:58:25.672Z,4.55
2023-04-24T08:00:52.428Z,5.15
2023-04-24T08:03:21.173Z,3.72
2023-04-24T08:05:48.337Z,8.77
2023-04-24T08:08:15.265Z,5.68
2023-04-24T08:10:42.107Z,7.13
2023-04-24T08:13:08.990Z,7.20
2023-04-24T08:15:35.883Z,6.28
2023-04-24T08:18:02.761Z,5.07
2023-04-24T08:20:29.733Z,6.65
2023-04-24T08:22:57.663Z,4.35
2023-04-24T08:25:25.882Z,5.30
2023-04-24T08:27:53.033Z,3.30
2023-04-24T08:30:20.013Z,4.05
2023-04-24T08:32:47.071Z,8.38
2023-04-24T08:35:14.016Z,4.05
2023-04-24T08:37:41.126Z,3.72
2023-04-24T08:40:15.376Z,3.45
2023-04-24T08:42:45.830Z,4.47
2023-04-24T08:45:14.321Z,5.03
2023-04-24T08:47:42.325Z,4.10
2023-04-24T08:50:10.927Z,5.00
2023-04-24T08:52:38.056Z,5.80
2023-04-24T08:55:05.449Z,3.92
2023-04-24T08:57:33.719Z,3.00
2023-04-24T09:00:01.672Z,5.30
2023-04-24T09:02:29.210Z,3.42
2023-04-24T09:04:57.400Z,4.25
2023-04-24T09:07:27.319Z,3.90
2023-04-24T09:09:54.412Z,3.03
2023-04-24T09:12:22.186Z,3.17
2023-04-24T09:14:49.873Z,4.72
2023-04-24T09:17:16.649Z,2.90
2023-04-24T09:19:43.652Z,1.70
2023-04-24T09:22:12.410Z,1.52
2023-04-24T09:24:40.000Z,3.63
2023-04-24T09:27:06.868Z,3.03
2023-04-24T09:29:34.335Z,1.55
2023-04-24T09:32:19.679Z,2.17
2023-04-24T09:34:48.800Z,4.95
2023-04-24T09:37:31.596Z,3.15
2023-04-24T09:40:21.084Z,3.53
2023-04-24T09:43:13.690Z,2.50
2023-04-24T09:45:41.395Z,3.13
2023-04-24T09:48:12.001Z,2.80
2023-04-24T09:50:38.998Z,3.13
2023-04-24T09:53:10.075Z,1.77
2023-04-24T09:55:42.268Z,2.35
2023-04-24T09:58:09.616Z,2.00
2023-04-24T10:00:36.620Z,3.92
2023-04-24T10:03:05.737Z,2.00
2023-04-24T10:05:37.206Z,2.22
2023-04-24T10:08:09.578Z,2.90
2023-04-24T10:10:42.266Z,3.40
2023-04-24T10:13:11.424Z,3.05
2023-04-24T10:15:39.158Z,3.90
2023-04-24T10:18:07.774Z,3.13
2023-04-24T10:20:36.063Z,3.20
2023-04-24T10:23:03.176Z,3.75
2023-04-24T10:25:31.932Z,4.45
2023-04-24T10:28:01.021Z,6.75
2023-04-24T10:30:36.509Z,2.83
2023-04-24T10:33:05.352Z,4.70
2023-04-24T10:35:34.134Z,2.47
2023-04-24T10:38:10.678Z,2.70
2023-04-24T10:40:38.148Z,2.53
2023-04-24T10:43:12.602Z,2.65
2023-04-24T10:45:40.576Z,3.60
2023-04-24T10:48:15.046Z,5.20
2023-04-24T10:50:48.990Z,5.70
2023-04-24T10:53:24.541Z,6.10
2023-04-24T10:55:53.372Z,5.55
2023-04-24T10:58:24.674Z,4.50
2023-04-24T11:01:01.588Z,4.75
2023-04-24T11:03:33.842Z,4.05
2023-04-24T11:06:02.285Z,3.15
2023-04-24T11:08:33.805Z,5.00
2023-04-24T11:11:09.592Z,2.70
2023-04-24T11:13:55.086Z,6.35
2023-04-24T11:16:30.397Z,4.45
2023-04-24T11:19:10.946Z,3.25
2023-04-24T11:21:43.545Z,4.30
2023-04-24T11:24:40.331Z,4.10
2023-04-24T11:27:15.463Z,5.90
2023-04-24T11:29:51.547Z,3.50
2023-04-24T11:32:25.829Z,2.63
2023-04-24T11:34:58.900Z,4.03
2023-04-24T11:37:28.527Z,3.45
2023-04-24T11:39:57.478Z,5.40
2023-04-24T11:42:25.339Z,3.97
2023-04-24T11:44:54.371Z,4.65
2023-04-24T11:47:22.022Z,3.20
2023-04-24T11:49:51.826Z,3.20
2023-04-24T11:52:18.842Z,5.70
2023-04-24T11:54:52.578Z,9.50
2023-04-24T11:57:23.918Z,8.82
2023-04-24T11:59:51.089Z,5.97
2023-04-24T12:02:25.804Z,1.67
2023-04-24T12:04:56.528Z,3.53
2023-04-24T12:07:25.780Z,3.53
2023-04-24T12:10:01.606Z,2.65
2023-04-24T12:12:29.620Z,3.03
2023-04-24T12:14:58.922Z,4.88
2023-04-24T12:17:34.461Z,4.65
2023-04-24T12:20:04.120Z,1.70
2023-04-24T12:22:48.968Z,1.80
2023-04-24T12:25:18.115Z,2.83
2023-04-24T12:27:46.473Z,2.50
2023-04-24T12:30:18.316Z,1.98
2023-04-24T12:32:47.908Z,2.03
2023-04-24T12:35:22.197Z,5.40
2023-04-24T12:37:49.357Z,2.92
2023-04-24T12:40:17.181Z,2.05
2023-04-24T12:42:46.668Z,3.30
2023-04-24T12:45:14.802Z,4.40
2023-04-24T12:47:44.097Z,2.88
2023-04-24T12:50:12.966Z,3.40
2023-04-24T12:52:40.525Z,3.10
2023-04-24T12:55:11.533Z,3.15
2023-04-24T12:57:40.380Z,7.82
2023-04-24T13:00:09.107Z,4.13
2023-04-24T13:02:36.203Z,3.55
2023-04-24T13:05:04.234Z,5.68
2023-04-24T13:07:31.208Z,4.53
2023-04-24T13:09:59.207Z,5.35
2023-04-24T13:12:27.835Z,2.10
2023-04-24T13:14:55.308Z,2.67
2023-04-24T13:17:23.461Z,4.25
2023-04-24T13:19:53.003Z,3.42
2023-04-24T13:22:20.245Z,5.05
2023-04-24T13:24:49.758Z,3.92
2023-04-24T13:27:18.169Z,2.38
2023-04-24T13:29:45.227Z,3.50
2023-04-24T13:32:12.329Z,2.95
2023-04-24T13:34:41.005Z,8.55
2023-04-24T13:37:09.404Z,5.35
2023-04-24T13:39:36.803Z,2.45
2023-04-24T13:42:05.206Z,2.67
2023-04-24T13:44:32.645Z,4.40
2023-04-24T13:47:00.550Z,2.75
2023-04-24T13:49:28.127Z,3.58
2023-04-24T13:51:56.953Z,4.18
2023-04-24T13:54:27.312Z,4.35
2023-04-24T13:56:57.910Z,4.13
2023-04-24T13:59:25.333Z,9.30
2023-04-24T14:01:54.998Z,7.22
2023-04-24T14:04:23.308Z,5.70
2023-04-24T14:06:50.661Z,5.03
2023-04-24T14:09:17.687Z,2.40
2023-04-24T14:11:45.520Z,2.85
2023-04-24T14:14:12.893Z,4.78
2023-04-24T14:16:40.311Z,5.32
2023-04-24T14:19:07.681Z,3.75
2023-04-24T14:21:36.047Z,7.85
2023-04-24T14:24:03.254Z,3.97
2023-04-24T14:26:30.418Z,5.18
2023-04-24T14:29:13.541Z,4.97
2023-04-24T14:31:42.675Z,4.68
2023-04-24T14:34:10.640Z,4.35
2023-04-24T14:36:37.714Z,4.18
2023-04-24T14:39:08.536Z,2.90
2023-04-24T14:41:37.294Z,5.53
2023-04-24T14:44:05.017Z,4.05
2023-04-24T14:46:35.002Z,4.22
2023-04-24T14:49:04.688Z,5.43
2023-04-24T14:51:32.305Z,6.32
2023-04-24T14:53:59.840Z,2.53
2023-04-24T14:56:27.819Z,3.67
2023-04-24T14:58:54.897Z,2.75
2023-04-24T15:01:22.796Z,3.92
2023-04-24T15:03:50.332Z,3.72
2023-04-24T15:06:17.648Z,7.60
2023-04-24T15:08:44.981Z,5.20
2023-04-24T15:11:12.331Z,3.42
2023-04-24T15:13:39.846Z,3.60
2023-04-24T15:16:09.989Z,3.03
2023-04-24T15:18:36.843Z,3.67
2023-04-24T15:21:04.146Z,4.22
2023-04-24T15:23:31.049Z,4.55
2023-04-24T15:25:58.976Z,4.50
2023-04-24T15:28:26.399Z,7.40
2023-04-24T15:30:53.422Z,7.13
2023-04-24T15:33:20.634Z,7.85
2023-04-24T15:35:48.014Z,9.30
2023-04-24T15:38:14.987Z,6.45
2023-04-24T15:40:41.866Z,5.55
2023-04-24T15:43:08.731Z,4.75
2023-04-24T15:45:35.883Z,4.45
2023-04-24T15:48:02.876Z,7.43
2023-04-24T15:50:29.898Z,5.20
2023-04-24T15:52:56.927Z,5.50
2023-04-24T15:55:23.808Z,7.20
2023-04-24T15:57:50.636Z,6.15
2023-04-24T16:00:18.591Z,8.45
2023-04-24T16:02:45.652Z,7.45
2023-04-24T16:05:12.600Z,6.82
2023-04-24T16:07:40.628Z,8.75
2023-04-24T16:10:08.016Z,16.40
2023-04-24T16:12:35.174Z,4.55
2023-04-24T16:15:02.408Z,6.40
2023-04-24T16:17:29.479Z,5.13
2023-04-24T16:19:56.409Z,12.55
2023-04-24T16:22:23.546Z,5.28
2023-04-24T16:24:50.767Z,4.07
2023-04-24T16:27:17.825Z,6.25
2023-04-24T16:29:45.366Z,6.47
2023-04-24T16:32:12.751Z,5.10
2023-04-24T16:34:40.259Z,8.57
2023-04-24T16:37:07.627Z,6.50
2023-04-24T16:39:35.675Z,4.65
2023-04-24T16:42:02.942Z,5.45
2023-04-24T16:44:31.824Z,4.82
2023-04-24T16:46:59.107Z,5.90
2023-04-24T16:49:31.333Z,7.40
2023-04-24T16:51:58.395Z,5.90
2023-04-24T16:54:25.822Z,7.00
2023-04-24T16:56:54.392Z,7.43
2023-04-24T16:59:21.848Z,8.85
2023-04-24T17:01:49.356Z,4.43
2023-04-24T17:04:16.675Z,5.85
2023-04-24T17:06:43.652Z,5.45
2023-04-24T17:09:12.538Z,4.38
2023-04-24T17:11:39.626Z,5.22
2023-04-24T17:14:08.106Z,4.40
2023-04-24T17:16:35.267Z,4.88
2023-04-24T17:19:02.497Z,6.13
2023-04-24T17:21:29.830Z,4.72
2023-04-24T17:23:58.243Z,9.57
2023-04-24T17:26:25.954Z,15.63
2023-04-24T17:28:55.624Z,4.55
2023-04-24T17:31:24.339Z,6.88
2023-04-24T17:33:51.391Z,7.47
2023-04-24T17:36:18.736Z,5.10
2023-04-24T17:38:45.970Z,4.45
2023-04-24T17:41:15.406Z,6.78
2023-04-24T17:43:43.070Z,5.97
2023-04-24T17:46:10.096Z,5.63
2023-04-24T17:48:37.655Z,6.75
2023-04-24T17:51:04.568Z,6.15
2023-04-24T17:53:31.481Z,6.35
2023-04-24T17:56:02.346Z,6.72
2023-04-24T17:58:34.507Z,6.45
2023-04-24T18:01:01.722Z,7.85
2023-04-24T18:03:30.162Z,5.28
2023-04-24T18:05:57.625Z,4.90
2023-04-24T18:08:24.504Z,5.15
2023-04-24T18:10:53.918Z,6.25
2023-04-24T18:13:21.767Z,4.60
2023-04-24T18:15:48.961Z,6.07
2023-04-24T18:18:19.518Z,10.25
2023-04-24T18:20:47.052Z,6.03
2023-04-24T18:23:14.100Z,9.45
2023-04-24T18:25:41.334Z,10.50
2023-04-24T18:28:08.925Z,7.57
2023-04-24T18:30:36.951Z,9.18
2023-04-24T18:33:04.202Z,7.63
2023-04-24T18:35:31.185Z,6.72
2023-04-24T18:37:58.392Z,7.82
2023-04-24T18:40:26.130Z,6.30
2023-04-24T18:42:53.141Z,7.03
2023-04-24T18:45:20.177Z,8.77
2023-04-24T18:47:47.158Z,6.55
2023-04-24T18:50:15.138Z,8.13
2023-04-24T18:52:42.144Z,7.65
2023-04-24T18:55:10.134Z,6.25
2023-04-24T18:57:37.557Z,8.43
2023-04-24T19:00:06.387Z,8.45
2023-04-24T19:02:34.729Z,10.05
2023-04-24T19:05:01.956Z,6.20
2023-04-24T19:07:29.588Z,7.35
2023-04-24T19:09:56.480Z,7.82
2023-04-24T19:12:23.621Z,9.00
2023-04-24T19:14:52.099Z,11.82
2023-04-24T19:17:23.897Z,8.10
2023-04-24T19:19:51.511Z,12.80
2023-04-24T19:22:20.304Z,5.72
2023-04-24T19:24:48.001Z,9.73
2023-04-24T19:27:15.370Z,8.85
2023-04-24T19:29:42.520Z,5.85
2023-04-24T19:32:09.909Z,8.23
2023-04-24T19:34:39.759Z,8.73
2023-04-24T19:37:07.473Z,7.00
2023-04-24T19:39:34.507Z,8.52
2023-04-24T19:42:07.077Z,7.80
2023-04-24T19:44:35.156Z,8.18
2023-04-24T19:47:02.082Z,7.68
2023-04-24T19:49:28.927Z,8.57
2023-04-24T19:51:55.728Z,5.13
2023-04-24T19:54:22.962Z,8.55
2023-04-24T19:56:49.690Z,7.22
2023-04-24T19:59:16.573Z,7.82
2023-04-24T20:01:47.255Z,5.18
2023-04-24T20:04:14.417Z,5.10
2023-04-24T20:06:41.372Z,7.95
2023-04-24T20:09:08.234Z,5.43
2023-04-24T20:11:34.973Z,7.85
2023-04-24T20:14:04.396Z,8.95
2023-04-24T20:16:31.666Z,8.65
2023-04-24T20:18:59.054Z,6.97
2023-04-24T20:21:26.202Z,9.63
2023-04-24T20:23:53.038Z,7.97
2023-04-24T20:26:19.942Z,10.73
2023-04-24T20:28:46.982Z,7.90
2023-04-24T20:31:14.408Z,5.97
2023-04-24T20:33:41.870Z,6.32
2023-04-24T20:36:09.835Z,8.63
2023-04-24T20:38:37.525Z,6.30
2023-04-24T20:41:05.691Z,7.13
2023-04-24T20:43:32.617Z,8.30
2023-04-24T20:45:59.713Z,8.18
2023-04-24T20:48:26.988Z,9.32
2023-04-24T20:50:54.154Z,8.95
2023-04-24T20:53:21.313Z,10.70
2023-04-24T20:55:51.301Z,10.27
2023-04-24T20:58:22.365Z,9.18
2023-04-24T21:00:49.908Z,8.23
2023-04-24T21:03:17.080Z,7.18
2023-04-24T21:05:44.198Z,10.02
2023-04-24T21:08:11.117Z,8.60
2023-04-24T21:10:38.238Z,12.70
2023-04-24T21:13:06.217Z,11.43
2023-04-24T21:15:33.780Z,12.52
2023-04-24T21:18:01.476Z,10.93
2023-04-24T21:20:28.365Z,11.70
2023-04-24T21:23:10.610Z,10.75
2023-04-24T21:25:37.970Z,13.13
2023-04-24T21:28:05.139Z,10.73
2023-04-24T21:30:31.998Z,11.07
2023-04-24T21:32:59.173Z,9.27
2023-04-24T21:35:25.997Z,9.73
2023-04-24T21:37:52.773Z,11.65
2023-04-24T21:40:19.685Z,11.98
2023-04-24T21:42:46.572Z,10.43
2023-04-24T21:45:13.366Z,9.48
2023-04-24T21:47:40.262Z,7.53
2023-04-24T21:50:07.723Z,8.20
2023-04-24T21:52:34.501Z,8.95
2023-04-24T21:55:01.230Z,10.60
2023-04-24T21:57:29.461Z,10.52
2023-04-24T21:59:56.490Z,9.30
2023-04-24T22:02:26.979Z,7.10
2023-04-24T22:04:56.671Z,10.32
2023-04-24T22:07:23.785Z,8.77
2023-04-24T22:09:50.576Z,8.55
2023-04-24T22:12:17.686Z,10.38
2023-04-24T22:14:44.513Z,8.00
2023-04-24T22:17:11.722Z,8.02
2023-04-24T22:19:39.176Z,8.40
2023-04-24T22:22:06.020Z,9.60
2023-04-24T22:24:32.804Z,8.65
2023-04-24T22:26:59.734Z,7.10
2023-04-24T22:29:27.050Z,11.25
2023-04-24T22:31:56.696Z,8.45
2023-04-24T22:34:23.640Z,8.40
2023-04-24T22:36:50.433Z,8.48
2023-04-24T22:39:17.910Z,9.95
2023-04-24T22:41:44.881Z,8.27
2023-04-24T22:44:11.806Z,8.15
2023-04-24T22:46:38.600Z,9.48
2023-04-24T22:49:05.594Z,8.93
2023-04-24T22:51:33.856Z,8.43
2023-04-24T22:54:02.545Z,8.13
2023-04-24T22:56:29.433Z,9.75
2023-04-24T22:58:56.260Z,8.85
2023-04-24T23:01:23.205Z,8.68
2023-04-24T23:03:50.593Z,7.93
2023-04-24T23:06:17.793Z,10.00
2023-04-24T23:08:46.401Z,9.32
2023-04-24T23:11:13.480Z,7.90
2023-04-24T23:13:43.585Z,7.68
2023-04-24T23:16:10.640Z,7.30
2023-04-24T23:18:37.541Z,8.95
2023-04-24T23:21:04.712Z,7.60
2023-04-24T23:23:31.491Z,8.93
2023-04-24T23:25:59.003Z,7.70
2023-04-24T23:28:26.380Z,6.47
2023-04-24T23:30:53.234Z,7.00
2023-04-24T23:33:20.010Z,6.35
2023-04-24T23:35:46.941Z,7.72
2023-04-24T23:38:13.793Z,7.43
2023-04-24T23:40:40.619Z,11.60
2023-04-24T23:43:08.441Z,7.28
2023-04-24T23:45:37.256Z,7.50
2023-04-24T23:48:04.811Z,8.80
2023-04-24T23:50:31.719Z,9.13
2023-04-24T23:52:59.207Z,8.40
2023-04-24T23:55:26.244Z,7.75
2023-04-24T23:57:53.069Z,10.38
